createdAt,value
2022-10-01T00:00:09.024Z,14.42
2022-10-01T00:03:12.052Z,14.44
2022-10-01T00:06:18.825Z,14.44
2022-10-01T00:09:20.891Z,14.45
2022-10-01T00:12:23.157Z,14.45
2022-10-01T00:15:26.462Z,14.46
2022-10-01T00:18:29.637Z,14.46
2022-10-01T00:21:32.435Z,14.48
2022-10-01T00:24:36.600Z,14.48
2022-10-01T00:27:38.671Z,14.47
2022-10-01T00:30:46.056Z,14.45
2022-10-01T00:33:48.491Z,14.40
2022-10-01T00:36:50.773Z,14.41
2022-10-01T00:39:52.843Z,14.40
2022-10-01T00:42:55.399Z,14.40
2022-10-01T00:46:00.226Z,14.36
2022-10-01T00:49:10.747Z,14.37
2022-10-01T00:52:16.026Z,14.37
2022-10-01T00:55:31.498Z,14.39
2022-10-01T00:58:33.864Z,14.40
2022-10-01T01:01:37.299Z,14.41
2022-10-01T01:04:40.458Z,14.43
2022-10-01T01:07:47.510Z,14.41
2022-10-01T01:10:50.179Z,14.39
2022-10-01T01:14:06.366Z,14.39
2022-10-01T01:17:15.389Z,14.37
2022-10-01T01:20:44.102Z,14.37
2022-10-01T01:24:12.350Z,14.36
2022-10-01T01:27:16.367Z,14.37
2022-10-01T01:30:18.657Z,14.37
2022-10-01T01:33:22.255Z,14.38
2022-10-01T01:36:32.322Z,14.39
2022-10-01T01:39:35.368Z,14.37
2022-10-01T01:42:39.707Z,14.38
2022-10-01T01:45:45.390Z,14.37
2022-10-01T01:48:51.139Z,14.36
2022-10-01T01:52:22.735Z,14.35
2022-10-01T01:55:26.130Z,14.36
2022-10-01T01:58:29.125Z,14.31
2022-10-01T02:01:39.562Z,14.31
2022-10-01T02:04:47.082Z,14.31
2022-10-01T02:08:01.800Z,14.31
2022-10-01T02:11:07.026Z,14.30
2022-10-01T02:14:21.210Z,14.30
2022-10-01T02:17:31.477Z,14.30
2022-10-01T02:20:42.707Z,14.27
2022-10-01T02:23:58.126Z,14.27
2022-10-01T02:27:03.365Z,14.26
2022-10-01T02:30:10.017Z,14.23
2022-10-01T02:33:14.870Z,14.22
2022-10-01T02:36:18.455Z,14.20
2022-10-01T02:39:21.954Z,14.20
2022-10-01T02:42:26.073Z,14.19
2022-10-01T02:45:32.201Z,14.14
2022-10-01T02:48:36.021Z,14.13
2022-10-01T02:51:43.568Z,14.11
2022-10-01T02:54:55.759Z,14.12
2022-10-01T02:57:57.776Z,14.11
2022-10-01T03:01:00.015Z,14.13
2022-10-01T03:04:02.368Z,14.15
2022-10-01T03:07:04.690Z,14.16
2022-10-01T03:10:07.672Z,14.15
2022-10-01T03:13:09.982Z,14.16
2022-10-01T03:16:12.088Z,14.16
2022-10-01T03:19:14.394Z,14.16
2022-10-01T03:22:22.643Z,14.16
2022-10-01T03:25:25.100Z,14.12
2022-10-01T03:28:27.570Z,14.13
2022-10-01T03:31:30.279Z,14.14
2022-10-01T03:34:32.424Z,14.12
2022-10-01T03:37:34.642Z,14.11
2022-10-01T03:40:39.116Z,14.11
2022-10-01T03:43:41.516Z,14.11
2022-10-01T03:46:43.852Z,14.10
2022-10-01T03:49:46.150Z,14.11
2022-10-01T03:52:50.647Z,14.13
2022-10-01T03:55:53.647Z,14.14
2022-10-01T03:58:55.690Z,14.17
2022-10-01T04:01:58.051Z,14.18
2022-10-01T04:05:00.437Z,14.19
2022-10-01T04:08:02.475Z,14.19
2022-10-01T04:11:08.234Z,14.21
2022-10-01T04:14:10.294Z,14.22
2022-10-01T04:17:12.604Z,14.23
2022-10-01T04:20:14.661Z,14.22
2022-10-01T04:23:17.000Z,14.24
2022-10-01T04:26:19.180Z,14.24
2022-10-01T04:29:21.415Z,14.25
2022-10-01T04:32:23.394Z,14.25
2022-10-01T04:35:28.471Z,14.24
2022-10-01T04:38:30.487Z,14.24
2022-10-01T04:41:33.279Z,14.24
2022-10-01T04:44:36.134Z,14.22
2022-10-01T04:47:38.439Z,14.22
2022-10-01T04:50:40.541Z,14.23
2022-10-01T04:53:43.003Z,14.21
2022-10-01T04:56:44.953Z,14.20
2022-10-01T04:59:47.673Z,14.21
2022-10-01T05:02:50.178Z,14.22
2022-10-01T05:05:52.447Z,14.22
2022-10-01T05:08:54.386Z,14.22
2022-10-01T05:11:56.645Z,14.24
2022-10-01T05:15:01.201Z,14.24
2022-10-01T05:18:03.486Z,14.25
2022-10-01T05:21:06.135Z,14.25
2022-10-01T05:24:08.408Z,14.24
2022-10-01T05:27:13.306Z,14.14
2022-10-01T05:30:24.207Z,14.08
2022-10-01T05:33:30.376Z,14.12
2022-10-01T05:36:32.639Z,14.15
2022-10-01T05:39:39.030Z,14.18
2022-10-01T05:42:45.243Z,14.20
2022-10-01T05:45:47.268Z,14.25
2022-10-01T05:48:51.269Z,14.27
2022-10-01T05:51:53.313Z,14.30
2022-10-01T05:54:55.594Z,14.32
2022-10-01T05:58:00.427Z,14.31
2022-10-01T06:01:04.078Z,14.32
2022-10-01T06:04:06.441Z,14.34
2022-10-01T06:07:08.797Z,14.35
2022-10-01T06:10:11.331Z,14.38
2022-10-01T06:13:17.645Z,14.37
2022-10-01T06:16:20.928Z,14.40
2022-10-01T06:19:23.015Z,14.43
2022-10-01T06:22:25.334Z,14.48
2022-10-01T06:25:31.139Z,14.54
2022-10-01T06:28:33.506Z,14.61
2022-10-01T06:31:35.801Z,14.68
2022-10-01T06:34:38.313Z,14.75
2022-10-01T06:37:40.294Z,14.80
2022-10-01T06:40:42.574Z,14.84
2022-10-01T06:43:44.548Z,14.80
2022-10-01T06:46:46.831Z,14.80
2022-10-01T06:49:49.572Z,14.83
2022-10-01T06:52:52.558Z,14.85
2022-10-01T06:55:54.792Z,14.87
2022-10-01T06:58:57.019Z,14.92
2022-10-01T07:01:59.095Z,14.96
2022-10-01T07:05:01.666Z,14.99
2022-10-01T07:08:03.935Z,15.01
2022-10-01T07:11:06.214Z,15.02
2022-10-01T07:14:09.115Z,15.04
2022-10-01T07:17:11.484Z,15.05
2022-10-01T07:20:14.872Z,15.11
2022-10-01T07:23:17.665Z,15.13
2022-10-01T07:26:19.860Z,15.15
2022-10-01T07:29:23.911Z,15.17
2022-10-01T07:32:26.167Z,15.16
2022-10-01T07:35:29.689Z,15.16
2022-10-01T07:38:33.463Z,15.17
2022-10-01T07:41:36.101Z,15.22
2022-10-01T07:44:38.270Z,15.28
2022-10-01T07:47:43.591Z,15.32
2022-10-01T07:50:45.883Z,15.40
2022-10-01T07:53:48.170Z,15.44
2022-10-01T07:56:52.937Z,15.49
2022-10-01T07:59:56.186Z,15.52
2022-10-01T08:02:58.519Z,15.50
2022-10-01T08:06:03.433Z,15.57
2022-10-01T08:09:06.197Z,15.62
2022-10-01T08:12:08.480Z,15.68
2022-10-01T08:15:11.327Z,15.73
2022-10-01T08:18:13.882Z,15.78
2022-10-01T08:21:16.079Z,15.86
2022-10-01T08:24:18.415Z,15.93
2022-10-01T08:27:21.727Z,15.94
2022-10-01T08:30:24.420Z,15.92
2022-10-01T08:33:26.454Z,15.97
2022-10-01T08:36:28.743Z,15.99
2022-10-01T08:39:30.745Z,15.95
2022-10-01T08:42:55.932Z,15.97
2022-10-01T08:46:01.656Z,15.98
2022-10-01T08:49:04.045Z,16.00
2022-10-01T08:52:26.455Z,15.99
2022-10-01T08:55:36.313Z,15.97
2022-10-01T08:58:43.647Z,15.97
2022-10-01T09:01:45.966Z,15.99
2022-10-01T09:04:51.088Z,16.04
2022-10-01T09:08:16.570Z,16.08
2022-10-01T09:11:30.966Z,16.13
2022-10-01T09:14:36.764Z,16.26
2022-10-01T09:18:01.702Z,16.32
2022-10-01T09:21:07.796Z,16.27
2022-10-01T09:24:25.085Z,16.34
2022-10-01T09:27:27.711Z,16.31
2022-10-01T09:30:30.219Z,16.44
2022-10-01T09:33:37.323Z,16.55
2022-10-01T09:36:44.093Z,16.67
2022-10-01T09:39:49.086Z,16.86
2022-10-01T09:42:51.503Z,16.97
2022-10-01T09:45:54.214Z,17.17
2022-10-01T09:49:03.327Z,17.37
2022-10-01T09:52:28.249Z,17.65
2022-10-01T09:55:34.149Z,17.89
2022-10-01T09:58:37.498Z,18.03
2022-10-01T10:01:39.741Z,18.21
2022-10-01T10:04:42.059Z,18.51
2022-10-01T10:07:45.771Z,18.62
2022-10-01T10:10:52.176Z,18.86
2022-10-01T10:14:02.866Z,19.15
2022-10-01T10:17:17.960Z,18.91
2022-10-01T10:20:31.191Z,18.87
2022-10-01T10:23:34.351Z,18.64
2022-10-01T10:26:38.804Z,18.76
2022-10-01T10:29:43.721Z,18.81
2022-10-01T10:32:49.019Z,18.88
2022-10-01T10:36:01.939Z,19.38
2022-10-01T10:39:06.349Z,20.33
2022-10-01T10:42:14.487Z,20.28
2022-10-01T10:45:21.458Z,20.67
2022-10-01T10:48:26.217Z,20.83
2022-10-01T10:51:28.445Z,20.53
2022-10-01T10:54:37.928Z,20.77
2022-10-01T10:57:39.957Z,20.96
2022-10-01T11:00:48.537Z,21.33
2022-10-01T11:03:53.403Z,21.64
2022-10-01T11:06:56.684Z,21.53
2022-10-01T11:10:18.748Z,21.58
2022-10-01T11:13:26.860Z,21.50
2022-10-01T11:16:41.271Z,21.19
2022-10-01T11:20:03.344Z,20.80
2022-10-01T11:23:28.126Z,20.65
2022-10-01T11:26:53.310Z,20.63
2022-10-01T11:30:03.360Z,20.69
2022-10-01T11:33:06.017Z,20.53
2022-10-01T11:36:41.314Z,21.04
2022-10-01T11:39:44.942Z,21.28
2022-10-01T11:42:50.960Z,21.65
2022-10-01T11:46:00.629Z,21.67
2022-10-01T11:49:11.299Z,21.64
2022-10-01T11:52:20.725Z,21.15
2022-10-01T11:55:54.103Z,21.26
2022-10-01T11:59:01.879Z,21.11
2022-10-01T12:02:15.382Z,20.91
2022-10-01T12:05:27.133Z,20.99
2022-10-01T12:08:31.899Z,21.17
2022-10-01T12:11:42.460Z,21.43
2022-10-01T12:14:57.632Z,21.54
2022-10-01T12:18:00.149Z,21.92
2022-10-01T12:21:04.088Z,22.37
2022-10-01T12:24:24.611Z,22.17
2022-10-01T12:27:53.567Z,21.81
2022-10-01T12:31:09.249Z,21.39
2022-10-01T12:34:17.410Z,21.37
2022-10-01T12:37:20.932Z,21.15
2022-10-01T12:40:30.937Z,20.80
2022-10-01T12:43:51.631Z,20.37
2022-10-01T12:47:04.580Z,20.16
2022-10-01T12:50:37.009Z,19.97
2022-10-01T12:53:44.754Z,19.96
2022-10-01T12:56:53.461Z,19.77
2022-10-01T13:00:05.021Z,19.85
2022-10-01T13:03:15.186Z,19.77
2022-10-01T13:06:25.876Z,19.86
2022-10-01T13:09:33.910Z,20.06
2022-10-01T13:12:41.948Z,20.45
2022-10-01T13:15:49.820Z,20.89
2022-10-01T13:19:17.757Z,21.24
2022-10-01T13:22:20.103Z,21.69
2022-10-01T13:25:29.230Z,21.20
2022-10-01T13:28:40.711Z,20.94
2022-10-01T13:31:59.302Z,21.28
2022-10-01T13:35:20.755Z,21.46
2022-10-01T13:38:31.739Z,21.42
2022-10-01T13:41:34.929Z,21.14
2022-10-01T13:44:39.384Z,21.05
2022-10-01T13:47:42.257Z,20.94
2022-10-01T13:51:11.048Z,20.91
2022-10-01T13:54:20.989Z,20.83
2022-10-01T13:57:37.354Z,20.74
2022-10-01T14:00:48.147Z,20.58
2022-10-01T14:04:09.359Z,20.50
2022-10-01T14:07:30.495Z,20.43
2022-10-01T14:10:36.315Z,20.42
2022-10-01T14:14:05.749Z,20.63
2022-10-01T14:17:11.981Z,20.77
2022-10-01T14:20:24.853Z,20.91
2022-10-01T14:24:01.374Z,20.98
2022-10-01T14:27:11.385Z,20.96
2022-10-01T14:30:26.109Z,20.83
2022-10-01T14:33:41.602Z,20.64
2022-10-01T14:36:45.290Z,20.45
2022-10-01T14:39:59.845Z,20.21
2022-10-01T14:43:03.538Z,20.07
2022-10-01T14:46:06.436Z,19.93
2022-10-01T14:49:19.117Z,19.80
2022-10-01T14:52:26.753Z,19.74
2022-10-01T14:55:29.378Z,19.66
2022-10-01T14:58:33.981Z,19.56
2022-10-01T15:01:36.812Z,19.47
2022-10-01T15:04:45.418Z,19.39
2022-10-01T15:07:47.888Z,19.33
2022-10-01T15:10:55.066Z,19.21
2022-10-01T15:14:06.861Z,19.13
2022-10-01T15:17:19.425Z,19.01
2022-10-01T15:20:21.886Z,18.92
2022-10-01T15:23:25.409Z,18.82
2022-10-01T15:26:28.296Z,18.72
2022-10-01T15:29:30.509Z,18.60
2022-10-01T15:32:37.197Z,18.46
2022-10-01T15:35:41.906Z,18.39
2022-10-01T15:38:52.064Z,18.34
2022-10-01T15:41:55.068Z,18.27
2022-10-01T15:45:21.192Z,18.20
2022-10-01T15:48:31.174Z,18.10
2022-10-01T15:51:33.941Z,18.04
2022-10-01T15:54:36.788Z,17.95
2022-10-01T15:57:48.996Z,17.86
2022-10-01T16:01:26.506Z,17.79
2022-10-01T16:04:29.113Z,17.71
2022-10-01T16:07:36.811Z,17.62
2022-10-01T16:10:45.970Z,17.55
2022-10-01T16:13:52.707Z,17.48
2022-10-01T16:17:14.332Z,17.43
2022-10-01T16:20:18.254Z,17.36
2022-10-01T16:23:35.828Z,17.28
2022-10-01T16:26:38.722Z,17.22
2022-10-01T16:29:41.216Z,17.15
2022-10-01T16:32:43.283Z,17.09
2022-10-01T16:35:48.591Z,17.02
2022-10-01T16:38:51.567Z,16.96
2022-10-01T16:42:19.051Z,16.92
2022-10-01T16:45:24.677Z,16.87
2022-10-01T16:48:28.130Z,16.81
2022-10-01T16:51:31.954Z,16.76
2022-10-01T16:54:34.534Z,16.72
2022-10-01T16:57:39.031Z,16.70
2022-10-01T17:00:41.998Z,16.66
2022-10-01T17:03:44.248Z,16.64
2022-10-01T17:06:46.659Z,16.59
2022-10-01T17:09:50.347Z,16.57
2022-10-01T17:12:53.857Z,16.55
2022-10-01T17:15:56.328Z,16.49
2022-10-01T17:18:58.734Z,16.46
2022-10-01T17:22:00.965Z,16.40
2022-10-01T17:25:03.653Z,16.35
2022-10-01T17:28:08.134Z,16.31
2022-10-01T17:31:15.600Z,16.27
2022-10-01T17:34:21.199Z,16.16
2022-10-01T17:37:24.034Z,16.19
2022-10-01T17:40:26.114Z,16.13
2022-10-01T17:43:28.759Z,16.09
2022-10-01T17:46:30.997Z,16.02
2022-10-01T17:49:33.293Z,15.94
2022-10-01T17:52:38.368Z,15.88
2022-10-01T17:55:41.856Z,15.82
2022-10-01T17:58:45.598Z,15.77
2022-10-01T18:01:50.031Z,15.72
2022-10-01T18:04:54.633Z,15.68
2022-10-01T18:07:57.134Z,15.64
2022-10-01T18:11:11.212Z,15.61
2022-10-01T18:14:13.408Z,15.59
2022-10-01T18:17:15.814Z,15.58
2022-10-01T18:20:18.837Z,15.57
2022-10-01T18:23:23.588Z,15.56
2022-10-01T18:26:25.635Z,15.55
2022-10-01T18:29:27.943Z,15.51
2022-10-01T18:32:36.843Z,15.48
2022-10-01T18:35:43.812Z,15.47
2022-10-01T18:38:47.696Z,15.45
2022-10-01T18:41:50.377Z,15.42
2022-10-01T18:44:56.184Z,15.41
2022-10-01T18:47:58.616Z,15.39
2022-10-01T18:51:15.543Z,15.36
2022-10-01T18:54:27.607Z,15.35
2022-10-01T18:57:29.632Z,15.34
2022-10-01T19:00:38.874Z,15.32
2022-10-01T19:04:00.172Z,15.32
2022-10-01T19:07:10.847Z,15.32
2022-10-01T19:10:31.511Z,15.31
2022-10-01T19:13:33.807Z,15.30
2022-10-01T19:16:41.951Z,15.30
2022-10-01T19:19:52.665Z,15.29
2022-10-01T19:23:04.375Z,15.28
2022-10-01T19:26:09.865Z,15.29
2022-10-01T19:29:11.968Z,15.28
2022-10-01T19:32:26.775Z,15.26
2022-10-01T19:35:37.887Z,15.23
2022-10-01T19:38:40.832Z,15.17
2022-10-01T19:41:44.464Z,15.17
2022-10-01T19:44:58.170Z,15.15
2022-10-01T19:48:15.941Z,15.16
2022-10-01T19:51:23.134Z,15.16
2022-10-01T19:54:30.177Z,15.19
2022-10-01T19:57:39.048Z,15.18
2022-10-01T20:00:41.434Z,15.19
2022-10-01T20:03:46.495Z,15.17
2022-10-01T20:06:48.570Z,15.18
2022-10-01T20:10:07.097Z,15.19
2022-10-01T20:13:21.470Z,15.20
2022-10-01T20:16:24.149Z,15.20
2022-10-01T20:19:41.214Z,15.21
2022-10-01T20:22:49.886Z,15.22
2022-10-01T20:26:10.442Z,15.23
2022-10-01T20:29:14.121Z,15.23
2022-10-01T20:32:16.226Z,15.24
2022-10-01T20:35:24.140Z,15.25
2022-10-01T20:38:33.374Z,15.25
2022-10-01T20:41:42.520Z,15.26
2022-10-01T20:44:45.352Z,15.26
2022-10-01T20:47:50.192Z,15.26
2022-10-01T20:50:54.126Z,15.26
2022-10-01T20:54:04.221Z,15.24
2022-10-01T20:57:27.963Z,15.23
2022-10-01T21:00:31.110Z,15.23
2022-10-01T21:03:39.338Z,15.22
2022-10-01T21:06:47.112Z,15.20
2022-10-01T21:09:51.525Z,15.19
2022-10-01T21:12:57.474Z,15.19
2022-10-01T21:16:18.265Z,15.17
2022-10-01T21:19:24.671Z,15.15
2022-10-01T21:22:26.918Z,15.14
2022-10-01T21:25:37.916Z,15.11
2022-10-01T21:28:39.933Z,15.06
2022-10-01T21:31:54.700Z,15.01
2022-10-01T21:34:59.996Z,14.98
2022-10-01T21:38:22.720Z,14.93
2022-10-01T21:41:28.667Z,14.88
2022-10-01T21:44:30.934Z,14.81
2022-10-01T21:47:32.934Z,14.76
2022-10-01T21:50:35.596Z,14.73
2022-10-01T21:53:52.787Z,14.67
2022-10-01T21:57:00.810Z,14.62
2022-10-01T22:00:13.221Z,14.58
2022-10-01T22:03:22.334Z,14.50
2022-10-01T22:06:38.718Z,14.45
2022-10-01T22:09:44.169Z,14.41
2022-10-01T22:12:50.724Z,14.37
2022-10-01T22:15:54.998Z,14.33
2022-10-01T22:19:00.637Z,14.29
2022-10-01T22:22:14.504Z,14.28
2022-10-01T22:25:16.691Z,14.23
2022-10-01T22:28:21.451Z,14.18
2022-10-01T22:31:26.840Z,14.15
2022-10-01T22:34:33.829Z,14.11
2022-10-01T22:37:39.536Z,14.09
2022-10-01T22:40:59.642Z,14.06
2022-10-01T22:44:18.855Z,14.05
2022-10-01T22:47:21.945Z,14.04
2022-10-01T22:50:39.001Z,14.02
2022-10-01T22:54:00.244Z,13.98
2022-10-01T22:57:31.519Z,13.97
2022-10-01T23:00:38.662Z,13.97
2022-10-01T23:03:48.674Z,13.71
2022-10-01T23:07:00.271Z,13.92
2022-10-01T23:10:37.854Z,13.91
2022-10-01T23:13:56.792Z,13.89
2022-10-01T23:17:04.767Z,13.91
2022-10-01T23:20:16.374Z,13.90
2022-10-01T23:23:27.168Z,13.91
2022-10-01T23:26:34.215Z,13.94
2022-10-01T23:29:42.260Z,13.94
2022-10-01T23:32:53.770Z,13.96
2022-10-01T23:35:58.477Z,13.97
2022-10-01T23:39:03.741Z,13.99
2022-10-01T23:42:11.872Z,14.00
2022-10-01T23:45:14.123Z,14.00
2022-10-01T23:48:23.599Z,14.00
2022-10-01T23:51:26.011Z,14.01
2022-10-01T23:54:40.462Z,14.01
2022-10-01T23:57:43.099Z,14.01
